11°C Temp
10°C Dewpoint
% Humidity
Temperature
11 KM/H
7 MPH
6 KTS
220°
South West

Wind Speed
Mostly Cloudy
Conditions
Pressure 1016.92 (hPa) - 30.03 (in)
Visibility 6.2 (mi) - 10.0 (km)

Current Conditions
EDDG
Location 6km (3.2mi)
Metar :EDDG 252250Z 22006KT 9999 BKN012 11/10 Q1017 NOSIG
Mon 25th October 23:50 pm

Airport
  Metar Aviation API Data Provided by https://www.checkwx.com/ PHP scripts by weather34.com ©2021